Terminal Aerodrome Forecast
Issued by NWS Wichita, KS

Home | Current Version | Previous Version | Text Only | Print | Product List | Glossary Off
Versions: 1 2 3 4 5 6 7 8 9 10 11 12

679
FTUS43 KICT 210520
TAFICT
TAF
KICT 210520Z 2106/2206 35007KT P6SM SKC
     FM211900 28004KT P6SM SKC
     FM212200 20006KT P6SM SKC=

USA.gov is the U.S. government's official web portal to all federal, state and local government web resources and services.